Relevés horaires Bierset (Belgique)


Relevés horaires à Bierset - Lundi 13 Juill. 2020
Heure UTC1 Température [°C] Vent [km/h] Hum. [%] Pres.4 [hPa] Visi. [Km] Nébu. [octa] Préc.5 [mm] Cond.
2m. Res. Ros. Dir.2 Vit. Moy. Raf.3
23:00 16.7 16.7 8.7 NNO 0.0 3.7 5.6 59 1019.4(-0.4/3h) 30 3/8 -- --
22:00 16.3 16.3 9.3 NNO 3.7 3.7 5.6 63 1019.8(0.0/3h) 30 3/8 -- --
21:00 18.1 18.1 9.1 NNO 3.7 5.6 9.3 56 1019.8(-0.2/3h) 30 3/8 -- --
20:00 19.5 19.5 9.4 NNO 1.9 3.7 5.6 52 1019.6(-0.5/3h) 30 3/8 -- --
19:00 20.8 20.8 8.9 N 3.7 5.6 9.3 46 1019.5(-1.0/3h) 30 2/8 -- --
18:00 22.6 22.6 7.1 NNO 5.6 7.4 11.1 37 1019.6(-1.2/3h) 30 4/8 0/12h
--
17:00 23.2 23.2 7.9 NO 5.6 7.4 11.1 37 1019.9(-1.5/3h) 30 1/8 -- --
16:00 23.3 23.3 8.2 NO 5.6 5.6 11.1 38 1020.3(-1.6/3h) 30 3/8 -- --
15:00 23.7 23.7 8.9 NO 5.6 7.4 11.1 39 1020.8(-1.7/3h) 30 4/8 -- --
14:00 23.1 23.1 7.9 NNO 1.9 7.4 11.1 38 1021.4(-1.7/3h) 30 3/8 -- --
13:00 23.0 23.0 7.4 O 5.6 5.6 11.1 37 1021.9(-1.7/3h) 30 2/8 -- --
12:00 23.0 23.0 8.3 NNO 1.9 5.6 11.1 39 1022.6(-1.2/3h) 30 1/8 0/6h
--
11:00 22.1 22.1 8.0 NNO 3.7 5.6 7.4 40 1023.2(-1.0/3h) 30 1/8 -- --
10:00 21.1 21.1 8.5 N 5.6 5.6 11.1 44 1023.8(-0.8/3h) 30 1/8 -- --
09:00 20.1 20.1 10.3 N 5.6 5.6 9.3 53 1024.1(-0.5/3h) 30 1/8 -- --
08:00 18.0 18.0 10.3 N 1.9 1.9 5.6 61 1024.5(0.1/3h) 30 1/8 -- --
07:00 15.0 15.0 10.5 NNO 0.0 1.9 5.6 74 1025(0.2/3h) 30 2/8 -- --
06:00 13.2 13.2 9.6 ESE 1.9 5.6 13.0 79 1025.1(0.0/3h) 30 2/8 0/12h
--
05:00 11.1 11.1 8.5 N 1.9 1.9 3.7 84 1025.1(-0.6/3h) 30 2/8 -- --
04:00 10.3 10.3 8.2 N 1.9 3.7 3.7 87 1025.2(-0.9/3h) 30 2/8 -- --
03:00 11.5 11.5 8.3 NE 1.9 5.6 13.0 81 1025.2(-1.1/3h) 30 4/8 -- --
02:00 12.1 12.1 8.5 N 1.9 3.7 5.6 79 1025.6(-0.9/3h) 30 3/8 -- --
01:00 12.6 12.6 8.2 NNE 1.9 5.6 13.0 75 1026(-0.6/3h) 30 5/8 -- --
00:00 14.1 14.1 8.3 NE 3.7 9.3 22.2 68 1026.1(-0.5/3h) 30 5/8 0/6h
0/24h
--

1 Coordinated Universal Time. Actuellement il est 22:00 locale et 20:00 UTC.

2 Le vent souffle depuis la direction indiquée vers la direction oposée.

3 Les rafales max. sont disponible 40 min après l'heure du relevé.

4 Pour les stations d'altitude (plus de 600m) le géopotentiel du niveau le plus proche de la pression obligatoire est indiqué.

5 Les stations disposant d'un diffuseur peuvent indiquer "trace". Cela signifie que des précipitations ont touchés le sol mais que la quantité est inférieure à 0.1 mm.

Récapitulatif de la journée
Température [°C] Vent [km/h] Ensoleillement4 [h] Precipitations totale5 [mm] Pression [Hpa]
Min1 Max.2 Moy.3 Max. Min Max.
10.1 23.8 5.2 22.2 0 h 0 min 0 1019.4 1026.1

1 Température minimale relevée entre 18:00 UTC la veille et 18:00 UTC le jour donné.

2 Température maximale relevée entre 06:00 UTC le jour donné et 06:00 UTC le lendemain.

3 Vent moyen de la journée basé sur les relevés horaires.

4 Ensoleillement en heures relevé entre 06:00 UTC la veille et 06:00 UTC le jour donné.

5 Précipitations totales tombées entre 06:00 UTC la jour donné et 06:00 UTC le lendemain.

Graphiques horaires